sensor_id;sensor_type;location;lat;lon;timestamp;P1;durP1;ratioP1;P2;durP2;ratioP2
35324;SDS011;35135;47.510;19.036;2022-12-20T00:01:43;18.52;;;15.05;;
35324;SDS011;35135;47.510;19.036;2022-12-20T00:04:09;16.95;;;13.95;;
35324;SDS011;35135;47.510;19.036;2022-12-20T00:06:36;16.58;;;14.45;;
35324;SDS011;35135;47.510;19.036;2022-12-20T00:09:03;16.13;;;13.77;;
35324;SDS011;35135;47.510;19.036;2022-12-20T00:11:30;17.42;;;14.35;;
35324;SDS011;35135;47.510;19.036;2022-12-20T00:13:56;16.33;;;13.65;;
35324;SDS011;35135;47.510;19.036;2022-12-20T00:16:23;17.42;;;15.48;;
35324;SDS011;35135;47.510;19.036;2022-12-20T00:18:54;16.00;;;14.30;;
35324;SDS011;35135;47.510;19.036;2022-12-20T00:21:25;16.50;;;13.88;;
35324;SDS011;35135;47.510;19.036;2022-12-20T00:23:51;16.52;;;14.63;;
35324;SDS011;35135;47.510;19.036;2022-12-20T00:26:19;16.48;;;14.65;;
35324;SDS011;35135;47.510;19.036;2022-12-20T00:28:46;17.52;;;14.65;;
35324;SDS011;35135;47.510;19.036;2022-12-20T00:31:13;18.65;;;14.73;;
35324;SDS011;35135;47.510;19.036;2022-12-20T00:33:40;17.02;;;14.10;;
35324;SDS011;35135;47.510;19.036;2022-12-20T00:36:10;16.60;;;14.38;;
35324;SDS011;35135;47.510;19.036;2022-12-20T00:38:35;16.20;;;14.13;;
35324;SDS011;35135;47.510;19.036;2022-12-20T00:43:28;16.98;;;14.02;;
35324;SDS011;35135;47.510;19.036;2022-12-20T00:45:55;17.30;;;14.30;;
35324;SDS011;35135;47.510;19.036;2022-12-20T00:48:21;15.55;;;13.90;;
35324;SDS011;35135;47.510;19.036;2022-12-20T00:50:47;17.10;;;14.48;;
35324;SDS011;35135;47.510;19.036;2022-12-20T00:53:12;17.25;;;14.38;;
35324;SDS011;35135;47.510;19.036;2022-12-20T00:55:42;17.23;;;14.77;;
35324;SDS011;35135;47.510;19.036;2022-12-20T00:58:09;15.63;;;13.93;;
35324;SDS011;35135;47.510;19.036;2022-12-20T01:00:35;16.73;;;14.00;;
35324;SDS011;35135;47.510;19.036;2022-12-20T01:03:02;17.17;;;14.23;;
35324;SDS011;35135;47.510;19.036;2022-12-20T01:05:27;15.60;;;13.77;;
35324;SDS011;35135;47.510;19.036;2022-12-20T01:07:53;16.33;;;14.35;;
35324;SDS011;35135;47.510;19.036;2022-12-20T01:10:19;16.95;;;14.10;;
35324;SDS011;35135;47.510;19.036;2022-12-20T01:12:44;17.73;;;14.80;;
35324;SDS011;35135;47.510;19.036;2022-12-20T01:15:10;16.38;;;14.13;;
35324;SDS011;35135;47.510;19.036;2022-12-20T01:17:36;16.95;;;14.43;;
35324;SDS011;35135;47.510;19.036;2022-12-20T01:20:02;16.23;;;14.05;;
35324;SDS011;35135;47.510;19.036;2022-12-20T01:22:29;17.05;;;15.02;;
35324;SDS011;35135;47.510;19.036;2022-12-20T01:24:55;17.67;;;14.40;;
35324;SDS011;35135;47.510;19.036;2022-12-20T01:27:21;15.30;;;13.70;;
35324;SDS011;35135;47.510;19.036;2022-12-20T01:29:46;15.80;;;14.07;;
35324;SDS011;35135;47.510;19.036;2022-12-20T01:32:12;16.83;;;14.77;;
35324;SDS011;35135;47.510;19.036;2022-12-20T01:34:37;16.23;;;13.75;;
35324;SDS011;35135;47.510;19.036;2022-12-20T01:37:03;17.83;;;15.15;;
35324;SDS011;35135;47.510;19.036;2022-12-20T01:39:29;15.98;;;14.27;;
35324;SDS011;35135;47.510;19.036;2022-12-20T01:41:54;16.08;;;14.40;;
35324;SDS011;35135;47.510;19.036;2022-12-20T01:46:46;17.13;;;15.20;;
35324;SDS011;35135;47.510;19.036;2022-12-20T01:49:16;15.68;;;13.98;;
35324;SDS011;35135;47.510;19.036;2022-12-20T01:51:52;16.38;;;14.65;;
35324;SDS011;35135;47.510;19.036;2022-12-20T01:56:52;16.80;;;14.15;;
35324;SDS011;35135;47.510;19.036;2022-12-20T01:59:22;15.48;;;13.10;;
35324;SDS011;35135;47.510;19.036;2022-12-20T02:01:50;16.25;;;14.00;;
35324;SDS011;35135;47.510;19.036;2022-12-20T02:04:15;15.20;;;13.60;;
35324;SDS011;35135;47.510;19.036;2022-12-20T02:06:41;15.93;;;13.25;;
35324;SDS011;35135;47.510;19.036;2022-12-20T02:09:07;16.73;;;14.27;;
35324;SDS011;35135;47.510;19.036;2022-12-20T02:11:36;16.27;;;14.45;;
35324;SDS011;35135;47.510;19.036;2022-12-20T02:17:00;16.27;;;14.55;;
35324;SDS011;35135;47.510;19.036;2022-12-20T02:27:53;15.15;;;13.43;;
35324;SDS011;35135;47.510;19.036;2022-12-20T02:30:27;15.48;;;13.85;;
35324;SDS011;35135;47.510;19.036;2022-12-20T02:33:01;15.45;;;13.75;;
35324;SDS011;35135;47.510;19.036;2022-12-20T02:35:32;14.88;;;13.25;;
35324;SDS011;35135;47.510;19.036;2022-12-20T02:38:01;15.30;;;13.65;;
35324;SDS011;35135;47.510;19.036;2022-12-20T02:40:47;15.82;;;13.95;;
35324;SDS011;35135;47.510;19.036;2022-12-20T02:43:17;14.88;;;12.82;;
35324;SDS011;35135;47.510;19.036;2022-12-20T02:46:03;15.73;;;13.57;;
35324;SDS011;35135;47.510;19.036;2022-12-20T02:48:29;14.55;;;13.02;;
35324;SDS011;35135;47.510;19.036;2022-12-20T02:50:57;16.48;;;14.07;;
35324;SDS011;35135;47.510;19.036;2022-12-20T02:53:26;14.80;;;13.20;;
35324;SDS011;35135;47.510;19.036;2022-12-20T02:55:56;15.32;;;13.73;;
35324;SDS011;35135;47.510;19.036;2022-12-20T02:58:28;16.35;;;14.13;;
35324;SDS011;35135;47.510;19.036;2022-12-20T03:01:06;15.32;;;13.45;;
35324;SDS011;35135;47.510;19.036;2022-12-20T03:03:36;16.08;;;13.75;;
35324;SDS011;35135;47.510;19.036;2022-12-20T03:06:02;14.45;;;12.95;;
35324;SDS011;35135;47.510;19.036;2022-12-20T03:08:28;16.33;;;14.23;;
35324;SDS011;35135;47.510;19.036;2022-12-20T03:10:54;15.00;;;12.93;;
35324;SDS011;35135;47.510;19.036;2022-12-20T03:13:21;15.00;;;13.38;;
35324;SDS011;35135;47.510;19.036;2022-12-20T03:15:48;15.05;;;13.20;;
35324;SDS011;35135;47.510;19.036;2022-12-20T03:18:13;17.75;;;13.55;;
35324;SDS011;35135;47.510;19.036;2022-12-20T03:20:39;16.65;;;13.93;;
35324;SDS011;35135;47.510;19.036;2022-12-20T03:23:05;16.25;;;14.27;;
35324;SDS011;35135;47.510;19.036;2022-12-20T03:25:31;15.65;;;13.95;;
35324;SDS011;35135;47.510;19.036;2022-12-20T03:27:56;14.07;;;12.52;;
35324;SDS011;35135;47.510;19.036;2022-12-20T03:30:22;16.05;;;13.93;;
35324;SDS011;35135;47.510;19.036;2022-12-20T03:32:48;16.00;;;13.73;;
35324;SDS011;35135;47.510;19.036;2022-12-20T03:35:14;14.43;;;12.93;;
35324;SDS011;35135;47.510;19.036;2022-12-20T03:37:39;15.27;;;13.68;;
35324;SDS011;35135;47.510;19.036;2022-12-20T03:40:05;16.08;;;13.82;;
35324;SDS011;35135;47.510;19.036;2022-12-20T03:42:31;15.80;;;13.82;;
35324;SDS011;35135;47.510;19.036;2022-12-20T03:44:57;15.20;;;13.35;;
35324;SDS011;35135;47.510;19.036;2022-12-20T03:47:23;15.45;;;13.15;;
35324;SDS011;35135;47.510;19.036;2022-12-20T03:49:48;15.38;;;13.68;;
35324;SDS011;35135;47.510;19.036;2022-12-20T03:52:15;14.20;;;12.38;;
35324;SDS011;35135;47.510;19.036;2022-12-20T03:54:41;14.40;;;12.90;;
35324;SDS011;35135;47.510;19.036;2022-12-20T03:57:07;15.43;;;13.45;;
35324;SDS011;35135;47.510;19.036;2022-12-20T03:59:32;15.25;;;13.48;;
35324;SDS011;35135;47.510;19.036;2022-12-20T04:01:59;15.43;;;13.30;;
35324;SDS011;35135;47.510;19.036;2022-12-20T04:04:25;15.15;;;13.55;;
35324;SDS011;35135;47.510;19.036;2022-12-20T04:06:51;15.35;;;12.82;;
35324;SDS011;35135;47.510;19.036;2022-12-20T04:09:17;14.43;;;12.88;;
35324;SDS011;35135;47.510;19.036;2022-12-20T04:11:42;14.50;;;12.75;;
35324;SDS011;35135;47.510;19.036;2022-12-20T04:14:08;15.65;;;13.55;;
35324;SDS011;35135;47.510;19.036;2022-12-20T04:16:34;14.85;;;13.07;;
35324;SDS011;35135;47.510;19.036;2022-12-20T04:18:59;14.25;;;12.77;;
35324;SDS011;35135;47.510;19.036;2022-12-20T04:21:29;14.50;;;12.95;;
35324;SDS011;35135;47.510;19.036;2022-12-20T04:23:56;14.30;;;12.68;;
35324;SDS011;35135;47.510;19.036;2022-12-20T04:26:23;14.32;;;12.38;;
35324;SDS011;35135;47.510;19.036;2022-12-20T04:28:48;14.27;;;12.77;;
35324;SDS011;35135;47.510;19.036;2022-12-20T04:31:14;14.75;;;13.07;;
35324;SDS011;35135;47.510;19.036;2022-12-20T04:33:40;13.50;;;12.10;;
35324;SDS011;35135;47.510;19.036;2022-12-20T04:36:06;15.73;;;12.85;;
35324;SDS011;35135;47.510;19.036;2022-12-20T04:38:32;15.43;;;12.70;;
35324;SDS011;35135;47.510;19.036;2022-12-20T04:40:58;16.30;;;13.40;;
35324;SDS011;35135;47.510;19.036;2022-12-20T04:43:24;14.07;;;12.57;;
35324;SDS011;35135;47.510;19.036;2022-12-20T04:45:50;13.52;;;12.13;;
35324;SDS011;35135;47.510;19.036;2022-12-20T04:48:18;15.10;;;12.82;;
35324;SDS011;35135;47.510;19.036;2022-12-20T04:50:47;14.23;;;12.65;;
35324;SDS011;35135;47.510;19.036;2022-12-20T04:53:14;14.50;;;12.73;;
35324;SDS011;35135;47.510;19.036;2022-12-20T04:55:58;14.07;;;12.55;;
35324;SDS011;35135;47.510;19.036;2022-12-20T04:58:24;14.68;;;13.18;;
35324;SDS011;35135;47.510;19.036;2022-12-20T05:00:50;14.70;;;12.93;;
35324;SDS011;35135;47.510;19.036;2022-12-20T05:03:16;14.75;;;13.20;;
35324;SDS011;35135;47.510;19.036;2022-12-20T05:05:43;13.55;;;11.95;;
35324;SDS011;35135;47.510;19.036;2022-12-20T05:08:08;14.07;;;12.10;;
35324;SDS011;35135;47.510;19.036;2022-12-20T05:10:35;14.07;;;12.48;;
35324;SDS011;35135;47.510;19.036;2022-12-20T05:13:01;12.85;;;11.20;;
35324;SDS011;35135;47.510;19.036;2022-12-20T05:15:27;12.13;;;10.82;;
35324;SDS011;35135;47.510;19.036;2022-12-20T05:17:53;13.18;;;11.15;;
35324;SDS011;35135;47.510;19.036;2022-12-20T05:20:23;13.05;;;10.98;;
35324;SDS011;35135;47.510;19.036;2022-12-20T05:25:45;20.52;;;11.50;;
35324;SDS011;35135;47.510;19.036;2022-12-20T05:28:31;17.42;;;12.02;;
35324;SDS011;35135;47.510;19.036;2022-12-20T05:30:56;15.88;;;11.82;;
35324;SDS011;35135;47.510;19.036;2022-12-20T05:33:22;14.95;;;12.40;;
35324;SDS011;35135;47.510;19.036;2022-12-20T05:35:48;12.93;;;11.18;;
35324;SDS011;35135;47.510;19.036;2022-12-20T05:38:14;13.32;;;11.27;;
35324;SDS011;35135;47.510;19.036;2022-12-20T05:40:40;13.52;;;11.13;;
35324;SDS011;35135;47.510;19.036;2022-12-20T05:43:05;13.55;;;11.50;;
35324;SDS011;35135;47.510;19.036;2022-12-20T05:45:32;13.25;;;11.45;;
35324;SDS011;35135;47.510;19.036;2022-12-20T05:47:57;12.95;;;10.73;;
35324;SDS011;35135;47.510;19.036;2022-12-20T05:50:23;12.35;;;10.40;;
35324;SDS011;35135;47.510;19.036;2022-12-20T05:52:49;15.38;;;10.90;;
35324;SDS011;35135;47.510;19.036;2022-12-20T05:55:15;13.00;;;11.38;;
35324;SDS011;35135;47.510;19.036;2022-12-20T05:57:41;12.07;;;10.82;;
35324;SDS011;35135;47.510;19.036;2022-12-20T06:00:07;13.20;;;11.35;;
35324;SDS011;35135;47.510;19.036;2022-12-20T06:02:33;12.38;;;10.75;;
35324;SDS011;35135;47.510;19.036;2022-12-20T06:04:59;11.20;;;9.90;;
35324;SDS011;35135;47.510;19.036;2022-12-20T06:07:25;13.45;;;10.93;;
35324;SDS011;35135;47.510;19.036;2022-12-20T06:09:53;13.05;;;10.35;;
35324;SDS011;35135;47.510;19.036;2022-12-20T06:12:22;12.63;;;10.95;;
35324;SDS011;35135;47.510;19.036;2022-12-20T06:14:48;11.93;;;10.23;;
35324;SDS011;35135;47.510;19.036;2022-12-20T06:17:13;12.82;;;10.80;;
35324;SDS011;35135;47.510;19.036;2022-12-20T06:19:39;13.25;;;11.27;;
35324;SDS011;35135;47.510;19.036;2022-12-20T06:22:07;15.35;;;10.27;;
35324;SDS011;35135;47.510;19.036;2022-12-20T06:24:34;13.32;;;11.43;;
35324;SDS011;35135;47.510;19.036;2022-12-20T06:27:00;13.65;;;11.43;;
35324;SDS011;35135;47.510;19.036;2022-12-20T06:29:27;15.63;;;11.02;;
35324;SDS011;35135;47.510;19.036;2022-12-20T06:31:52;12.48;;;10.13;;
35324;SDS011;35135;47.510;19.036;2022-12-20T06:34:18;14.18;;;9.60;;
35324;SDS011;35135;47.510;19.036;2022-12-20T06:36:44;13.27;;;10.90;;
35324;SDS011;35135;47.510;19.036;2022-12-20T06:39:10;17.42;;;10.90;;
35324;SDS011;35135;47.510;19.036;2022-12-20T06:41:35;16.48;;;11.70;;
35324;SDS011;35135;47.510;19.036;2022-12-20T06:44:01;12.63;;;10.18;;
35324;SDS011;35135;47.510;19.036;2022-12-20T06:46:27;14.50;;;11.32;;
35324;SDS011;35135;47.510;19.036;2022-12-20T06:48:54;13.80;;;10.73;;
35324;SDS011;35135;47.510;19.036;2022-12-20T06:51:20;13.40;;;10.45;;
35324;SDS011;35135;47.510;19.036;2022-12-20T06:53:46;15.88;;;10.70;;
35324;SDS011;35135;47.510;19.036;2022-12-20T06:56:11;13.27;;;10.38;;
35324;SDS011;35135;47.510;19.036;2022-12-20T06:58:37;13.80;;;10.63;;
35324;SDS011;35135;47.510;19.036;2022-12-20T07:01:03;15.20;;;9.82;;
35324;SDS011;35135;47.510;19.036;2022-12-20T07:03:28;13.13;;;10.63;;
35324;SDS011;35135;47.510;19.036;2022-12-20T07:05:54;13.48;;;10.10;;
35324;SDS011;35135;47.510;19.036;2022-12-20T07:08:20;11.50;;;10.30;;
35324;SDS011;35135;47.510;19.036;2022-12-20T07:10:46;12.85;;;10.57;;
35324;SDS011;35135;47.510;19.036;2022-12-20T07:13:12;11.55;;;10.02;;
35324;SDS011;35135;47.510;19.036;2022-12-20T07:15:38;12.52;;;10.07;;
35324;SDS011;35135;47.510;19.036;2022-12-20T07:18:04;14.93;;;9.82;;
35324;SDS011;35135;47.510;19.036;2022-12-20T07:20:30;13.60;;;10.75;;
35324;SDS011;35135;47.510;19.036;2022-12-20T07:22:57;12.70;;;10.88;;
35324;SDS011;35135;47.510;19.036;2022-12-20T07:25:23;13.52;;;10.73;;
35324;SDS011;35135;47.510;19.036;2022-12-20T07:27:49;10.98;;;9.25;;
35324;SDS011;35135;47.510;19.036;2022-12-20T07:30:16;11.80;;;9.88;;
35324;SDS011;35135;47.510;19.036;2022-12-20T07:32:43;12.85;;;9.98;;
35324;SDS011;35135;47.510;19.036;2022-12-20T07:35:09;12.90;;;9.60;;
35324;SDS011;35135;47.510;19.036;2022-12-20T07:37:35;17.05;;;10.07;;
35324;SDS011;35135;47.510;19.036;2022-12-20T07:40:02;15.52;;;10.45;;
35324;SDS011;35135;47.510;19.036;2022-12-20T07:42:28;12.73;;;10.02;;
35324;SDS011;35135;47.510;19.036;2022-12-20T07:44:53;12.23;;;9.07;;
35324;SDS011;35135;47.510;19.036;2022-12-20T07:47:19;13.35;;;10.13;;
35324;SDS011;35135;47.510;19.036;2022-12-20T07:49:45;12.38;;;9.80;;
35324;SDS011;35135;47.510;19.036;2022-12-20T07:52:10;17.25;;;10.25;;
35324;SDS011;35135;47.510;19.036;2022-12-20T07:54:48;15.35;;;11.18;;
35324;SDS011;35135;47.510;19.036;2022-12-20T07:57:24;17.90;;;11.52;;
35324;SDS011;35135;47.510;19.036;2022-12-20T07:59:58;13.02;;;11.45;;
35324;SDS011;35135;47.510;19.036;2022-12-20T08:02:27;16.02;;;12.18;;
35324;SDS011;35135;47.510;19.036;2022-12-20T08:04:56;15.07;;;12.32;;
35324;SDS011;35135;47.510;19.036;2022-12-20T08:07:24;14.20;;;12.00;;
35324;SDS011;35135;47.510;19.036;2022-12-20T08:09:52;15.45;;;11.95;;
35324;SDS011;35135;47.510;19.036;2022-12-20T08:12:18;15.18;;;12.43;;
35324;SDS011;35135;47.510;19.036;2022-12-20T08:14:45;13.93;;;11.30;;
35324;SDS011;35135;47.510;19.036;2022-12-20T08:17:11;14.73;;;11.73;;
35324;SDS011;35135;47.510;19.036;2022-12-20T08:19:37;15.23;;;10.85;;
35324;SDS011;35135;47.510;19.036;2022-12-20T08:22:03;14.50;;;11.70;;
35324;SDS011;35135;47.510;19.036;2022-12-20T08:24:29;14.75;;;11.50;;
35324;SDS011;35135;47.510;19.036;2022-12-20T08:26:54;13.93;;;11.65;;
35324;SDS011;35135;47.510;19.036;2022-12-20T08:29:20;12.95;;;11.10;;
35324;SDS011;35135;47.510;19.036;2022-12-20T08:31:46;13.82;;;10.75;;
35324;SDS011;35135;47.510;19.036;2022-12-20T08:34:11;12.23;;;10.13;;
35324;SDS011;35135;47.510;19.036;2022-12-20T08:36:38;13.77;;;10.52;;
35324;SDS011;35135;47.510;19.036;2022-12-20T08:39:04;12.38;;;10.05;;
35324;SDS011;35135;47.510;19.036;2022-12-20T08:41:30;11.93;;;10.63;;
35324;SDS011;35135;47.510;19.036;2022-12-20T08:43:56;13.88;;;11.27;;
35324;SDS011;35135;47.510;19.036;2022-12-20T08:46:21;13.35;;;10.63;;
35324;SDS011;35135;47.510;19.036;2022-12-20T08:48:47;12.43;;;10.48;;
35324;SDS011;35135;47.510;19.036;2022-12-20T08:51:12;12.15;;;10.65;;
35324;SDS011;35135;47.510;19.036;2022-12-20T08:53:38;12.13;;;10.50;;
35324;SDS011;35135;47.510;19.036;2022-12-20T08:56:11;13.82;;;10.63;;
35324;SDS011;35135;47.510;19.036;2022-12-20T08:58:41;11.68;;;10.13;;
35324;SDS011;35135;47.510;19.036;2022-12-20T09:01:08;12.82;;;10.52;;
35324;SDS011;35135;47.510;19.036;2022-12-20T09:03:37;11.48;;;10.07;;
35324;SDS011;35135;47.510;19.036;2022-12-20T09:06:05;12.88;;;10.70;;
35324;SDS011;35135;47.510;19.036;2022-12-20T09:08:33;12.80;;;10.10;;
35324;SDS011;35135;47.510;19.036;2022-12-20T09:11:04;12.07;;;10.30;;
35324;SDS011;35135;47.510;19.036;2022-12-20T09:13:40;12.90;;;9.68;;
35324;SDS011;35135;47.510;19.036;2022-12-20T09:16:08;10.90;;;9.77;;
35324;SDS011;35135;47.510;19.036;2022-12-20T09:18:34;12.82;;;10.32;;
35324;SDS011;35135;47.510;19.036;2022-12-20T09:21:04;13.85;;;9.82;;
35324;SDS011;35135;47.510;19.036;2022-12-20T09:23:31;12.82;;;10.88;;
35324;SDS011;35135;47.510;19.036;2022-12-20T09:26:04;12.45;;;10.10;;
35324;SDS011;35135;47.510;19.036;2022-12-20T09:28:32;11.63;;;9.80;;
35324;SDS011;35135;47.510;19.036;2022-12-20T09:31:03;13.00;;;10.68;;
35324;SDS011;35135;47.510;19.036;2022-12-20T09:33:31;11.85;;;10.00;;
35324;SDS011;35135;47.510;19.036;2022-12-20T09:35:58;15.95;;;10.73;;
35324;SDS011;35135;47.510;19.036;2022-12-20T09:38:24;22.05;;;13.10;;
35324;SDS011;35135;47.510;19.036;2022-12-20T09:40:51;20.92;;;13.48;;
35324;SDS011;35135;47.510;19.036;2022-12-20T09:43:19;26.15;;;14.57;;
35324;SDS011;35135;47.510;19.036;2022-12-20T09:45:46;23.55;;;13.60;;
35324;SDS011;35135;47.510;19.036;2022-12-20T09:48:16;24.80;;;14.30;;
35324;SDS011;35135;47.510;19.036;2022-12-20T09:50:56;27.60;;;14.05;;
35324;SDS011;35135;47.510;19.036;2022-12-20T09:56:29;25.33;;;13.82;;
35324;SDS011;35135;47.510;19.036;2022-12-20T09:59:19;26.63;;;14.10;;
35324;SDS011;35135;47.510;19.036;2022-12-20T10:01:45;28.05;;;14.88;;
35324;SDS011;35135;47.510;19.036;2022-12-20T10:15:42;26.50;;;14.82;;
35324;SDS011;35135;47.510;19.036;2022-12-20T10:26:26;30.92;;;16.35;;
35324;SDS011;35135;47.510;19.036;2022-12-20T10:28:52;26.02;;;15.52;;
35324;SDS011;35135;47.510;19.036;2022-12-20T10:31:18;27.42;;;17.77;;
35324;SDS011;35135;47.510;19.036;2022-12-20T10:33:44;32.22;;;18.17;;
35324;SDS011;35135;47.510;19.036;2022-12-20T10:36:27;30.08;;;18.23;;
35324;SDS011;35135;47.510;19.036;2022-12-20T10:38:56;27.40;;;16.85;;
35324;SDS011;35135;47.510;19.036;2022-12-20T10:41:25;32.30;;;19.67;;
35324;SDS011;35135;47.510;19.036;2022-12-20T10:46:39;29.88;;;18.00;;
35324;SDS011;35135;47.510;19.036;2022-12-20T10:51:58;33.28;;;21.38;;
35324;SDS011;35135;47.510;19.036;2022-12-20T10:59:43;52.92;;;31.67;;
35324;SDS011;35135;47.510;19.036;2022-12-20T11:02:25;46.97;;;31.95;;
35324;SDS011;35135;47.510;19.036;2022-12-20T11:07:25;47.25;;;30.50;;
35324;SDS011;35135;47.510;19.036;2022-12-20T11:09:57;34.53;;;26.17;;
35324;SDS011;35135;47.510;19.036;2022-12-20T11:12:28;35.53;;;27.20;;
35324;SDS011;35135;47.510;19.036;2022-12-20T11:15:10;37.80;;;26.52;;
35324;SDS011;35135;47.510;19.036;2022-12-20T11:17:46;34.63;;;25.45;;
35324;SDS011;35135;47.510;19.036;2022-12-20T11:33:47;31.20;;;22.05;;
35324;SDS011;35135;47.510;19.036;2022-12-20T11:38:47;30.77;;;22.70;;
35324;SDS011;35135;47.510;19.036;2022-12-20T11:41:26;28.02;;;20.92;;
35324;SDS011;35135;47.510;19.036;2022-12-20T11:44:16;27.60;;;20.42;;
35324;SDS011;35135;47.510;19.036;2022-12-20T11:49:40;29.73;;;20.15;;
35324;SDS011;35135;47.510;19.036;2022-12-20T12:00:57;25.25;;;17.40;;
35324;SDS011;35135;47.510;19.036;2022-12-20T12:03:26;28.95;;;17.52;;
35324;SDS011;35135;47.510;19.036;2022-12-20T12:11:30;24.40;;;16.98;;
35324;SDS011;35135;47.510;19.036;2022-12-20T12:14:00;26.75;;;17.10;;
35324;SDS011;35135;47.510;19.036;2022-12-20T12:16:35;21.90;;;16.15;;
35324;SDS011;35135;47.510;19.036;2022-12-20T12:19:07;23.35;;;16.42;;
35324;SDS011;35135;47.510;19.036;2022-12-20T12:26:45;23.08;;;16.35;;
35324;SDS011;35135;47.510;19.036;2022-12-20T12:29:12;21.65;;;15.25;;
35324;SDS011;35135;47.510;19.036;2022-12-20T12:31:43;20.67;;;15.02;;
35324;SDS011;35135;47.510;19.036;2022-12-20T12:45:51;33.05;;;19.13;;
35324;SDS011;35135;47.510;19.036;2022-12-20T12:48:22;30.88;;;19.80;;
35324;SDS011;35135;47.510;19.036;2022-12-20T12:51:00;34.10;;;18.65;;
35324;SDS011;35135;47.510;19.036;2022-12-20T12:56:51;25.08;;;18.17;;
35324;SDS011;35135;47.510;19.036;2022-12-20T13:01:49;28.27;;;17.50;;
35324;SDS011;35135;47.510;19.036;2022-12-20T13:17:57;23.10;;;15.27;;
35324;SDS011;35135;47.510;19.036;2022-12-20T13:20:41;24.33;;;15.80;;
35324;SDS011;35135;47.510;19.036;2022-12-20T13:23:28;22.52;;;14.65;;
35324;SDS011;35135;47.510;19.036;2022-12-20T13:25:54;22.02;;;14.45;;
35324;SDS011;35135;47.510;19.036;2022-12-20T13:30:47;19.58;;;14.15;;
35324;SDS011;35135;47.510;19.036;2022-12-20T13:33:40;20.25;;;14.18;;
35324;SDS011;35135;47.510;19.036;2022-12-20T13:36:30;21.38;;;14.63;;
35324;SDS011;35135;47.510;19.036;2022-12-20T13:38:59;22.27;;;14.10;;
35324;SDS011;35135;47.510;19.036;2022-12-20T13:41:50;19.55;;;13.77;;
35324;SDS011;35135;47.510;19.036;2022-12-20T13:49:42;19.77;;;13.20;;
35324;SDS011;35135;47.510;19.036;2022-12-20T13:52:21;21.05;;;13.52;;
35324;SDS011;35135;47.510;19.036;2022-12-20T13:54:52;18.23;;;13.30;;
35324;SDS011;35135;47.510;19.036;2022-12-20T13:57:26;19.33;;;13.48;;
35324;SDS011;35135;47.510;19.036;2022-12-20T13:59:55;18.63;;;12.68;;
35324;SDS011;35135;47.510;19.036;2022-12-20T14:02:25;18.80;;;12.90;;
35324;SDS011;35135;47.510;19.036;2022-12-20T14:05:04;19.60;;;13.05;;
35324;SDS011;35135;47.510;19.036;2022-12-20T14:07:38;19.55;;;11.95;;
35324;SDS011;35135;47.510;19.036;2022-12-20T14:10:15;20.15;;;12.65;;
35324;SDS011;35135;47.510;19.036;2022-12-20T14:12:46;16.00;;;11.45;;
35324;SDS011;35135;47.510;19.036;2022-12-20T14:15:31;16.40;;;12.40;;
35324;SDS011;35135;47.510;19.036;2022-12-20T14:20:42;16.58;;;12.50;;
35324;SDS011;35135;47.510;19.036;2022-12-20T14:23:19;15.00;;;11.13;;
35324;SDS011;35135;47.510;19.036;2022-12-20T14:26:23;16.85;;;11.07;;
35324;SDS011;35135;47.510;19.036;2022-12-20T14:28:52;28.63;;;12.60;;
35324;SDS011;35135;47.510;19.036;2022-12-20T14:34:41;18.65;;;11.52;;
35324;SDS011;35135;47.510;19.036;2022-12-20T14:36:49;17.05;;;10.95;;
35324;SDS011;35135;47.510;19.036;2022-12-20T14:39:31;15.25;;;10.95;;
35324;SDS011;35135;47.510;19.036;2022-12-20T14:44:36;18.10;;;10.70;;
35324;SDS011;35135;47.510;19.036;2022-12-20T14:49:56;14.80;;;10.00;;
35324;SDS011;35135;47.510;19.036;2022-12-20T14:52:34;16.17;;;10.90;;
35324;SDS011;35135;47.510;19.036;2022-12-20T14:55:05;13.70;;;10.18;;
35324;SDS011;35135;47.510;19.036;2022-12-20T14:57:41;13.95;;;10.27;;
35324;SDS011;35135;47.510;19.036;2022-12-20T15:10:42;18.38;;;10.40;;
35324;SDS011;35135;47.510;19.036;2022-12-20T15:13:19;16.23;;;10.10;;
35324;SDS011;35135;47.510;19.036;2022-12-20T15:15:47;13.88;;;9.77;;
35324;SDS011;35135;47.510;19.036;2022-12-20T15:18:16;17.45;;;9.85;;
35324;SDS011;35135;47.510;19.036;2022-12-20T15:20:45;13.77;;;10.18;;
35324;SDS011;35135;47.510;19.036;2022-12-20T15:23:17;11.73;;;9.60;;
35324;SDS011;35135;47.510;19.036;2022-12-20T15:25:44;12.38;;;10.35;;
35324;SDS011;35135;47.510;19.036;2022-12-20T15:28:20;14.90;;;10.27;;
35324;SDS011;35135;47.510;19.036;2022-12-20T15:30:48;13.13;;;10.45;;
35324;SDS011;35135;47.510;19.036;2022-12-20T15:33:19;13.98;;;11.00;;
35324;SDS011;35135;47.510;19.036;2022-12-20T15:35:47;14.97;;;10.77;;
35324;SDS011;35135;47.510;19.036;2022-12-20T15:38:17;14.85;;;11.32;;
35324;SDS011;35135;47.510;19.036;2022-12-20T15:40:46;15.07;;;11.27;;
35324;SDS011;35135;47.510;19.036;2022-12-20T15:43:15;17.20;;;11.50;;
35324;SDS011;35135;47.510;19.036;2022-12-20T15:45:43;14.43;;;11.60;;
35324;SDS011;35135;47.510;19.036;2022-12-20T15:48:14;15.50;;;11.40;;
35324;SDS011;35135;47.510;19.036;2022-12-20T15:50:43;14.52;;;10.57;;
35324;SDS011;35135;47.510;19.036;2022-12-20T15:53:23;15.88;;;11.38;;
35324;SDS011;35135;47.510;19.036;2022-12-20T15:55:52;11.75;;;9.95;;
35324;SDS011;35135;47.510;19.036;2022-12-20T15:58:20;15.15;;;11.27;;
35324;SDS011;35135;47.510;19.036;2022-12-20T16:00:47;15.60;;;10.38;;
35324;SDS011;35135;47.510;19.036;2022-12-20T16:03:14;12.70;;;10.82;;
35324;SDS011;35135;47.510;19.036;2022-12-20T16:05:47;13.63;;;10.82;;
35324;SDS011;35135;47.510;19.036;2022-12-20T16:08:16;13.50;;;10.65;;
35324;SDS011;35135;47.510;19.036;2022-12-20T16:10:45;13.90;;;10.65;;
35324;SDS011;35135;47.510;19.036;2022-12-20T16:13:15;19.52;;;11.10;;
35324;SDS011;35135;47.510;19.036;2022-12-20T16:15:45;13.75;;;10.05;;
35324;SDS011;35135;47.510;19.036;2022-12-20T16:18:11;15.38;;;10.38;;
35324;SDS011;35135;47.510;19.036;2022-12-20T16:20:37;13.35;;;9.90;;
35324;SDS011;35135;47.510;19.036;2022-12-20T16:23:03;16.52;;;10.93;;
35324;SDS011;35135;47.510;19.036;2022-12-20T16:25:32;14.02;;;9.75;;
35324;SDS011;35135;47.510;19.036;2022-12-20T16:28:00;14.23;;;10.23;;
35324;SDS011;35135;47.510;19.036;2022-12-20T16:30:27;13.13;;;10.05;;
35324;SDS011;35135;47.510;19.036;2022-12-20T16:32:53;12.65;;;10.07;;
35324;SDS011;35135;47.510;19.036;2022-12-20T16:35:23;11.13;;;9.18;;
35324;SDS011;35135;47.510;19.036;2022-12-20T16:37:51;13.50;;;9.57;;
35324;SDS011;35135;47.510;19.036;2022-12-20T16:40:20;14.23;;;10.15;;
35324;SDS011;35135;47.510;19.036;2022-12-20T16:42:47;12.48;;;9.82;;
35324;SDS011;35135;47.510;19.036;2022-12-20T16:45:18;12.75;;;9.73;;
35324;SDS011;35135;47.510;19.036;2022-12-20T16:50:12;12.73;;;9.00;;
35324;SDS011;35135;47.510;19.036;2022-12-20T16:52:37;13.48;;;9.05;;
35324;SDS011;35135;47.510;19.036;2022-12-20T16:55:03;23.92;;;11.02;;
35324;SDS011;35135;47.510;19.036;2022-12-20T16:57:29;14.50;;;10.18;;
35324;SDS011;35135;47.510;19.036;2022-12-20T16:59:55;13.60;;;9.32;;